sensor_id;sensor_type;location;lat;lon;timestamp;P1;durP1;ratioP1;P2;durP2;ratioP2
22634;SDS011;11484;50.858;4.384;2023-02-28T00:00:51;8.55;;;5.75;;
22634;SDS011;11484;50.858;4.384;2023-02-28T00:03:17;6.53;;;5.28;;
22634;SDS011;11484;50.858;4.384;2023-02-28T00:05:43;10.10;;;6.53;;
22634;SDS011;11484;50.858;4.384;2023-02-28T00:08:08;10.15;;;6.05;;
22634;SDS011;11484;50.858;4.384;2023-02-28T00:10:34;11.57;;;6.32;;
22634;SDS011;11484;50.858;4.384;2023-02-28T00:13:02;11.10;;;6.93;;
22634;SDS011;11484;50.858;4.384;2023-02-28T00:15:30;16.40;;;11.48;;
22634;SDS011;11484;50.858;4.384;2023-02-28T00:17:56;17.20;;;11.98;;
22634;SDS011;11484;50.858;4.384;2023-02-28T00:20:22;16.95;;;10.00;;
22634;SDS011;11484;50.858;4.384;2023-02-28T00:22:49;14.07;;;8.35;;
22634;SDS011;11484;50.858;4.384;2023-02-28T00:25:17;11.95;;;8.02;;
22634;SDS011;11484;50.858;4.384;2023-02-28T00:27:45;10.95;;;6.88;;
22634;SDS011;11484;50.858;4.384;2023-02-28T00:30:13;10.65;;;6.25;;
22634;SDS011;11484;50.858;4.384;2023-02-28T00:32:41;7.35;;;5.65;;
22634;SDS011;11484;50.858;4.384;2023-02-28T00:35:07;12.57;;;6.22;;
22634;SDS011;11484;50.858;4.384;2023-02-28T00:37:34;9.60;;;5.78;;
22634;SDS011;11484;50.858;4.384;2023-02-28T00:40:00;10.02;;;5.60;;
22634;SDS011;11484;50.858;4.384;2023-02-28T00:42:26;9.55;;;5.40;;
22634;SDS011;11484;50.858;4.384;2023-02-28T00:44:51;10.05;;;6.28;;
22634;SDS011;11484;50.858;4.384;2023-02-28T00:47:17;10.65;;;6.43;;
22634;SDS011;11484;50.858;4.384;2023-02-28T00:49:43;9.55;;;6.30;;
22634;SDS011;11484;50.858;4.384;2023-02-28T00:52:08;13.50;;;8.20;;
22634;SDS011;11484;50.858;4.384;2023-02-28T00:54:34;11.00;;;7.93;;
22634;SDS011;11484;50.858;4.384;2023-02-28T00:57:00;17.27;;;9.15;;
22634;SDS011;11484;50.858;4.384;2023-02-28T00:59:26;13.68;;;7.28;;
22634;SDS011;11484;50.858;4.384;2023-02-28T01:01:52;10.13;;;6.25;;
22634;SDS011;11484;50.858;4.384;2023-02-28T01:04:17;10.38;;;6.10;;
22634;SDS011;11484;50.858;4.384;2023-02-28T01:06:43;8.43;;;5.85;;
22634;SDS011;11484;50.858;4.384;2023-02-28T01:09:09;11.70;;;6.68;;
22634;SDS011;11484;50.858;4.384;2023-02-28T01:11:35;8.75;;;5.95;;
22634;SDS011;11484;50.858;4.384;2023-02-28T01:14:01;9.20;;;6.28;;
22634;SDS011;11484;50.858;4.384;2023-02-28T01:16:28;8.43;;;5.90;;
22634;SDS011;11484;50.858;4.384;2023-02-28T01:18:54;10.90;;;7.00;;
22634;SDS011;11484;50.858;4.384;2023-02-28T01:21:21;12.50;;;6.80;;
22634;SDS011;11484;50.858;4.384;2023-02-28T01:23:47;13.32;;;6.80;;
22634;SDS011;11484;50.858;4.384;2023-02-28T01:26:14;8.98;;;6.50;;
22634;SDS011;11484;50.858;4.384;2023-02-28T01:28:41;8.95;;;6.00;;
22634;SDS011;11484;50.858;4.384;2023-02-28T01:31:07;11.68;;;6.85;;
22634;SDS011;11484;50.858;4.384;2023-02-28T01:33:34;9.27;;;7.03;;
22634;SDS011;11484;50.858;4.384;2023-02-28T01:36:01;10.40;;;6.95;;
22634;SDS011;11484;50.858;4.384;2023-02-28T01:38:32;12.38;;;6.68;;
22634;SDS011;11484;50.858;4.384;2023-02-28T01:40:58;10.93;;;6.65;;
22634;SDS011;11484;50.858;4.384;2023-02-28T01:44:53;11.40;;;7.28;;
22634;SDS011;11484;50.858;4.384;2023-02-28T01:46:14;10.95;;;6.68;;
22634;SDS011;11484;50.858;4.384;2023-02-28T01:48:41;10.80;;;6.32;;
22634;SDS011;11484;50.858;4.384;2023-02-28T01:51:14;10.57;;;6.75;;
22634;SDS011;11484;50.858;4.384;2023-02-28T01:54:03;8.68;;;6.30;;
22634;SDS011;11484;50.858;4.384;2023-02-28T01:56:38;11.13;;;6.45;;
22634;SDS011;11484;50.858;4.384;2023-02-28T01:59:29;10.35;;;6.97;;
22634;SDS011;11484;50.858;4.384;2023-02-28T02:02:10;11.60;;;6.45;;
22634;SDS011;11484;50.858;4.384;2023-02-28T02:04:37;8.63;;;6.68;;
22634;SDS011;11484;50.858;4.384;2023-02-28T02:07:07;11.60;;;7.15;;
22634;SDS011;11484;50.858;4.384;2023-02-28T02:09:33;11.43;;;7.18;;
22634;SDS011;11484;50.858;4.384;2023-02-28T02:11:59;7.90;;;6.50;;
22634;SDS011;11484;50.858;4.384;2023-02-28T02:14:43;9.10;;;7.03;;
22634;SDS011;11484;50.858;4.384;2023-02-28T02:17:51;9.98;;;7.07;;
22634;SDS011;11484;50.858;4.384;2023-02-28T02:31:58;12.18;;;7.95;;
22634;SDS011;11484;50.858;4.384;2023-02-28T02:40:19;11.50;;;7.78;;
22634;SDS011;11484;50.858;4.384;2023-02-28T02:42:50;11.57;;;7.18;;
22634;SDS011;11484;50.858;4.384;2023-02-28T02:48:06;13.77;;;8.00;;
22634;SDS011;11484;50.858;4.384;2023-02-28T02:50:38;10.73;;;7.72;;
22634;SDS011;11484;50.858;4.384;2023-02-28T02:53:09;11.80;;;8.23;;
22634;SDS011;11484;50.858;4.384;2023-02-28T02:55:38;11.80;;;7.90;;
22634;SDS011;11484;50.858;4.384;2023-02-28T02:58:08;12.30;;;8.70;;
22634;SDS011;11484;50.858;4.384;2023-02-28T03:03:08;11.98;;;8.52;;
22634;SDS011;11484;50.858;4.384;2023-02-28T03:05:39;12.35;;;7.97;;
22634;SDS011;11484;50.858;4.384;2023-02-28T03:08:10;9.02;;;7.78;;
22634;SDS011;11484;50.858;4.384;2023-02-28T03:10:40;11.93;;;7.95;;
22634;SDS011;11484;50.858;4.384;2023-02-28T03:15:53;13.48;;;8.55;;
22634;SDS011;11484;50.858;4.384;2023-02-28T03:18:30;10.63;;;8.25;;
22634;SDS011;11484;50.858;4.384;2023-02-28T03:24:24;13.43;;;9.00;;
22634;SDS011;11484;50.858;4.384;2023-02-28T03:27:03;10.52;;;8.02;;
22634;SDS011;11484;50.858;4.384;2023-02-28T03:29:35;14.20;;;9.52;;
22634;SDS011;11484;50.858;4.384;2023-02-28T03:35:06;13.45;;;8.93;;
22634;SDS011;11484;50.858;4.384;2023-02-28T03:37:40;13.60;;;9.05;;
22634;SDS011;11484;50.858;4.384;2023-02-28T03:40:15;12.38;;;7.90;;
22634;SDS011;11484;50.858;4.384;2023-02-28T03:42:46;12.77;;;8.82;;
22634;SDS011;11484;50.858;4.384;2023-02-28T03:45:18;12.07;;;8.90;;
22634;SDS011;11484;50.858;4.384;2023-02-28T03:47:51;13.98;;;9.05;;
22634;SDS011;11484;50.858;4.384;2023-02-28T03:55:37;14.10;;;8.65;;
22634;SDS011;11484;50.858;4.384;2023-02-28T04:00:59;14.88;;;9.43;;
22634;SDS011;11484;50.858;4.384;2023-02-28T04:03:37;13.63;;;9.10;;
22634;SDS011;11484;50.858;4.384;2023-02-28T04:06:04;14.77;;;9.55;;
22634;SDS011;11484;50.858;4.384;2023-02-28T04:08:33;13.90;;;9.98;;
22634;SDS011;11484;50.858;4.384;2023-02-28T04:11:01;13.95;;;8.88;;
22634;SDS011;11484;50.858;4.384;2023-02-28T04:13:31;14.02;;;9.57;;
22634;SDS011;11484;50.858;4.384;2023-02-28T04:15:57;13.18;;;9.30;;
22634;SDS011;11484;50.858;4.384;2023-02-28T04:18:23;14.68;;;9.32;;
22634;SDS011;11484;50.858;4.384;2023-02-28T04:20:48;15.30;;;9.63;;
22634;SDS011;11484;50.858;4.384;2023-02-28T04:23:14;15.82;;;9.30;;
22634;SDS011;11484;50.858;4.384;2023-02-28T04:25:40;14.38;;;9.85;;
22634;SDS011;11484;50.858;4.384;2023-02-28T04:28:06;14.00;;;9.85;;
22634;SDS011;11484;50.858;4.384;2023-02-28T04:30:31;16.08;;;9.70;;
22634;SDS011;11484;50.858;4.384;2023-02-28T04:32:57;16.15;;;9.77;;
22634;SDS011;11484;50.858;4.384;2023-02-28T04:35:23;13.25;;;9.27;;
22634;SDS011;11484;50.858;4.384;2023-02-28T04:37:49;14.25;;;9.57;;
22634;SDS011;11484;50.858;4.384;2023-02-28T04:40:15;13.07;;;9.10;;
22634;SDS011;11484;50.858;4.384;2023-02-28T04:42:40;12.98;;;9.25;;
22634;SDS011;11484;50.858;4.384;2023-02-28T04:45:06;14.20;;;8.98;;
22634;SDS011;11484;50.858;4.384;2023-02-28T04:47:35;15.48;;;10.30;;
22634;SDS011;11484;50.858;4.384;2023-02-28T04:50:01;16.70;;;9.77;;
22634;SDS011;11484;50.858;4.384;2023-02-28T04:52:28;13.20;;;9.57;;
22634;SDS011;11484;50.858;4.384;2023-02-28T04:54:54;14.65;;;10.10;;
22634;SDS011;11484;50.858;4.384;2023-02-28T04:57:20;13.88;;;9.82;;
22634;SDS011;11484;50.858;4.384;2023-02-28T04:59:46;13.10;;;10.20;;
22634;SDS011;11484;50.858;4.384;2023-02-28T05:02:11;14.00;;;9.50;;
22634;SDS011;11484;50.858;4.384;2023-02-28T05:04:37;15.20;;;10.05;;
22634;SDS011;11484;50.858;4.384;2023-02-28T05:07:02;17.55;;;10.48;;
22634;SDS011;11484;50.858;4.384;2023-02-28T05:09:29;13.98;;;10.02;;
22634;SDS011;11484;50.858;4.384;2023-02-28T05:11:55;18.35;;;10.38;;
22634;SDS011;11484;50.858;4.384;2023-02-28T05:14:21;15.95;;;9.35;;
22634;SDS011;11484;50.858;4.384;2023-02-28T05:16:46;17.33;;;10.40;;
22634;SDS011;11484;50.858;4.384;2023-02-28T05:19:12;17.40;;;11.30;;
22634;SDS011;11484;50.858;4.384;2023-02-28T05:21:41;13.77;;;10.57;;
22634;SDS011;11484;50.858;4.384;2023-02-28T05:24:18;12.68;;;7.63;;
22634;SDS011;11484;50.858;4.384;2023-02-28T05:26:50;16.73;;;10.18;;
22634;SDS011;11484;50.858;4.384;2023-02-28T05:29:18;13.75;;;9.73;;
22634;SDS011;11484;50.858;4.384;2023-02-28T05:31:44;13.52;;;9.57;;
22634;SDS011;11484;50.858;4.384;2023-02-28T05:34:09;15.00;;;9.63;;
22634;SDS011;11484;50.858;4.384;2023-02-28T05:36:37;14.95;;;10.38;;
22634;SDS011;11484;50.858;4.384;2023-02-28T05:39:04;17.02;;;9.77;;
22634;SDS011;11484;50.858;4.384;2023-02-28T05:41:31;12.73;;;9.10;;
22634;SDS011;11484;50.858;4.384;2023-02-28T05:43:57;11.02;;;8.68;;
22634;SDS011;11484;50.858;4.384;2023-02-28T05:46:24;11.70;;;9.23;;
22634;SDS011;11484;50.858;4.384;2023-02-28T05:48:50;12.95;;;9.00;;
22634;SDS011;11484;50.858;4.384;2023-02-28T05:51:16;13.00;;;9.73;;
22634;SDS011;11484;50.858;4.384;2023-02-28T05:53:42;11.25;;;9.27;;
22634;SDS011;11484;50.858;4.384;2023-02-28T05:56:08;15.32;;;8.68;;
22634;SDS011;11484;50.858;4.384;2023-02-28T05:58:34;13.07;;;8.68;;
22634;SDS011;11484;50.858;4.384;2023-02-28T06:01:00;12.00;;;9.07;;
22634;SDS011;11484;50.858;4.384;2023-02-28T06:03:44;12.15;;;8.70;;
22634;SDS011;11484;50.858;4.384;2023-02-28T06:06:09;14.88;;;10.02;;
22634;SDS011;11484;50.858;4.384;2023-02-28T06:08:35;13.57;;;9.27;;
22634;SDS011;11484;50.858;4.384;2023-02-28T06:11:04;13.05;;;9.43;;
22634;SDS011;11484;50.858;4.384;2023-02-28T06:13:29;13.32;;;8.70;;
22634;SDS011;11484;50.858;4.384;2023-02-28T06:15:55;14.05;;;9.45;;
22634;SDS011;11484;50.858;4.384;2023-02-28T06:18:21;14.45;;;9.35;;
22634;SDS011;11484;50.858;4.384;2023-02-28T06:20:53;13.57;;;9.52;;
22634;SDS011;11484;50.858;4.384;2023-02-28T06:23:20;14.23;;;9.50;;
22634;SDS011;11484;50.858;4.384;2023-02-28T06:25:46;13.00;;;9.48;;
22634;SDS011;11484;50.858;4.384;2023-02-28T06:28:11;17.60;;;9.43;;
22634;SDS011;11484;50.858;4.384;2023-02-28T06:30:37;11.98;;;8.90;;
22634;SDS011;11484;50.858;4.384;2023-02-28T06:33:04;15.88;;;9.75;;
22634;SDS011;11484;50.858;4.384;2023-02-28T06:35:30;14.82;;;9.55;;
22634;SDS011;11484;50.858;4.384;2023-02-28T06:37:56;15.90;;;9.52;;
22634;SDS011;11484;50.858;4.384;2023-02-28T06:40:22;13.77;;;9.32;;
22634;SDS011;11484;50.858;4.384;2023-02-28T06:42:48;14.68;;;9.55;;
22634;SDS011;11484;50.858;4.384;2023-02-28T06:45:13;12.98;;;8.90;;
22634;SDS011;11484;50.858;4.384;2023-02-28T06:47:39;12.70;;;9.40;;
22634;SDS011;11484;50.858;4.384;2023-02-28T06:50:06;13.13;;;8.88;;
22634;SDS011;11484;50.858;4.384;2023-02-28T06:52:34;13.57;;;8.55;;
22634;SDS011;11484;50.858;4.384;2023-02-28T06:55:03;15.95;;;9.73;;
22634;SDS011;11484;50.858;4.384;2023-02-28T06:57:30;12.73;;;9.25;;
22634;SDS011;11484;50.858;4.384;2023-02-28T07:00:00;17.73;;;9.02;;
22634;SDS011;11484;50.858;4.384;2023-02-28T07:02:30;13.85;;;9.82;;
22634;SDS011;11484;50.858;4.384;2023-02-28T07:04:56;13.20;;;9.50;;
22634;SDS011;11484;50.858;4.384;2023-02-28T07:07:25;16.30;;;9.70;;
22634;SDS011;11484;50.858;4.384;2023-02-28T07:09:51;13.40;;;8.95;;
22634;SDS011;11484;50.858;4.384;2023-02-28T07:12:16;12.80;;;8.88;;
22634;SDS011;11484;50.858;4.384;2023-02-28T07:14:42;12.77;;;8.27;;
22634;SDS011;11484;50.858;4.384;2023-02-28T07:17:09;12.32;;;9.00;;
22634;SDS011;11484;50.858;4.384;2023-02-28T07:19:37;14.20;;;8.60;;
22634;SDS011;11484;50.858;4.384;2023-02-28T07:22:03;11.60;;;8.45;;
22634;SDS011;11484;50.858;4.384;2023-02-28T07:24:29;15.65;;;9.35;;
22634;SDS011;11484;50.858;4.384;2023-02-28T07:26:55;13.23;;;8.38;;
22634;SDS011;11484;50.858;4.384;2023-02-28T07:29:21;14.48;;;8.65;;
22634;SDS011;11484;50.858;4.384;2023-02-28T07:31:47;11.00;;;8.70;;
22634;SDS011;11484;50.858;4.384;2023-02-28T07:34:15;14.35;;;8.40;;
22634;SDS011;11484;50.858;4.384;2023-02-28T07:36:41;14.30;;;8.60;;
22634;SDS011;11484;50.858;4.384;2023-02-28T07:39:06;13.25;;;8.68;;
22634;SDS011;11484;50.858;4.384;2023-02-28T07:41:34;13.27;;;7.60;;
22634;SDS011;11484;50.858;4.384;2023-02-28T07:44:04;15.85;;;8.57;;
22634;SDS011;11484;50.858;4.384;2023-02-28T07:46:30;12.05;;;7.65;;
22634;SDS011;11484;50.858;4.384;2023-02-28T07:49:00;11.68;;;7.20;;
22634;SDS011;11484;50.858;4.384;2023-02-28T07:51:27;9.98;;;7.03;;
22634;SDS011;11484;50.858;4.384;2023-02-28T07:53:54;10.27;;;7.28;;
22634;SDS011;11484;50.858;4.384;2023-02-28T07:56:20;9.98;;;7.57;;
22634;SDS011;11484;50.858;4.384;2023-02-28T07:58:45;12.43;;;6.97;;
22634;SDS011;11484;50.858;4.384;2023-02-28T08:01:11;7.65;;;6.07;;
22634;SDS011;11484;50.858;4.384;2023-02-28T08:03:38;9.35;;;6.28;;
22634;SDS011;11484;50.858;4.384;2023-02-28T08:06:04;8.60;;;6.80;;
22634;SDS011;11484;50.858;4.384;2023-02-28T08:08:31;8.98;;;5.90;;
22634;SDS011;11484;50.858;4.384;2023-02-28T08:11:01;10.43;;;5.70;;
22634;SDS011;11484;50.858;4.384;2023-02-28T08:13:28;8.90;;;5.90;;
22634;SDS011;11484;50.858;4.384;2023-02-28T08:15:54;9.27;;;5.75;;
22634;SDS011;11484;50.858;4.384;2023-02-28T08:18:21;9.70;;;5.32;;
22634;SDS011;11484;50.858;4.384;2023-02-28T08:20:47;7.05;;;5.13;;
22634;SDS011;11484;50.858;4.384;2023-02-28T08:23:13;7.00;;;5.22;;
22634;SDS011;11484;50.858;4.384;2023-02-28T08:25:40;6.63;;;5.45;;
22634;SDS011;11484;50.858;4.384;2023-02-28T08:28:05;9.13;;;4.82;;
22634;SDS011;11484;50.858;4.384;2023-02-28T08:30:31;10.43;;;5.15;;
22634;SDS011;11484;50.858;4.384;2023-02-28T08:32:57;7.10;;;5.05;;
22634;SDS011;11484;50.858;4.384;2023-02-28T08:35:23;7.53;;;4.82;;
22634;SDS011;11484;50.858;4.384;2023-02-28T08:37:48;8.35;;;5.40;;
22634;SDS011;11484;50.858;4.384;2023-02-28T08:40:14;6.20;;;4.38;;
22634;SDS011;11484;50.858;4.384;2023-02-28T08:42:44;5.90;;;4.53;;
22634;SDS011;11484;50.858;4.384;2023-02-28T08:45:10;5.88;;;4.65;;
22634;SDS011;11484;50.858;4.384;2023-02-28T08:47:36;6.05;;;4.32;;
22634;SDS011;11484;50.858;4.384;2023-02-28T08:50:03;4.90;;;4.18;;
22634;SDS011;11484;50.858;4.384;2023-02-28T08:52:29;7.03;;;4.32;;
22634;SDS011;11484;50.858;4.384;2023-02-28T08:54:55;5.82;;;4.30;;
22634;SDS011;11484;50.858;4.384;2023-02-28T08:57:21;6.60;;;4.18;;
22634;SDS011;11484;50.858;4.384;2023-02-28T08:59:47;6.22;;;4.25;;
22634;SDS011;11484;50.858;4.384;2023-02-28T09:02:13;7.85;;;4.32;;
22634;SDS011;11484;50.858;4.384;2023-02-28T09:04:39;6.28;;;4.28;;
22634;SDS011;11484;50.858;4.384;2023-02-28T09:07:06;7.32;;;4.68;;
22634;SDS011;11484;50.858;4.384;2023-02-28T09:09:32;7.43;;;4.07;;
22634;SDS011;11484;50.858;4.384;2023-02-28T09:11:58;8.15;;;4.35;;
22634;SDS011;11484;50.858;4.384;2023-02-28T09:14:24;7.47;;;4.45;;
22634;SDS011;11484;50.858;4.384;2023-02-28T09:16:50;4.00;;;3.60;;
22634;SDS011;11484;50.858;4.384;2023-02-28T09:19:15;5.00;;;4.03;;
22634;SDS011;11484;50.858;4.384;2023-02-28T09:21:41;5.90;;;4.03;;
22634;SDS011;11484;50.858;4.384;2023-02-28T09:24:07;7.88;;;4.03;;
22634;SDS011;11484;50.858;4.384;2023-02-28T09:26:33;7.85;;;3.97;;
22634;SDS011;11484;50.858;4.384;2023-02-28T09:28:59;5.80;;;4.13;;
22634;SDS011;11484;50.858;4.384;2023-02-28T09:31:26;6.47;;;4.57;;
22634;SDS011;11484;50.858;4.384;2023-02-28T09:33:54;5.93;;;3.90;;
22634;SDS011;11484;50.858;4.384;2023-02-28T09:36:21;6.55;;;3.80;;
22634;SDS011;11484;50.858;4.384;2023-02-28T09:38:47;5.82;;;4.10;;
22634;SDS011;11484;50.858;4.384;2023-02-28T09:41:17;5.55;;;3.10;;
22634;SDS011;11484;50.858;4.384;2023-02-28T09:46:18;5.72;;;3.03;;
22634;SDS011;11484;50.858;4.384;2023-02-28T09:48:51;4.15;;;3.25;;
22634;SDS011;11484;50.858;4.384;2023-02-28T09:54:04;5.40;;;3.15;;
22634;SDS011;11484;50.858;4.384;2023-02-28T09:56:32;4.72;;;3.22;;
22634;SDS011;11484;50.858;4.384;2023-02-28T09:59:05;4.35;;;2.70;;
22634;SDS011;11484;50.858;4.384;2023-02-28T10:01:45;5.15;;;2.83;;
22634;SDS011;11484;50.858;4.384;2023-02-28T10:06:50;3.38;;;3.08;;
22634;SDS011;11484;50.858;4.384;2023-02-28T10:09:22;5.45;;;3.03;;
22634;SDS011;11484;50.858;4.384;2023-02-28T10:11:56;5.00;;;3.10;;
22634;SDS011;11484;50.858;4.384;2023-02-28T10:14:28;4.45;;;2.90;;
22634;SDS011;11484;50.858;4.384;2023-02-28T10:16:58;3.75;;;3.05;;
22634;SDS011;11484;50.858;4.384;2023-02-28T10:22:20;4.63;;;2.72;;
22634;SDS011;11484;50.858;4.384;2023-02-28T10:25:05;6.38;;;3.20;;
22634;SDS011;11484;50.858;4.384;2023-02-28T10:27:43;3.50;;;2.78;;
22634;SDS011;11484;50.858;4.384;2023-02-28T10:30:09;4.00;;;2.90;;
22634;SDS011;11484;50.858;4.384;2023-02-28T10:32:39;3.42;;;2.90;;
22634;SDS011;11484;50.858;4.384;2023-02-28T10:37:39;2.40;;;2.20;;
22634;SDS011;11484;50.858;4.384;2023-02-28T10:40:31;3.05;;;2.45;;
22634;SDS011;11484;50.858;4.384;2023-02-28T10:43:01;3.20;;;2.60;;
22634;SDS011;11484;50.858;4.384;2023-02-28T10:45:28;3.78;;;2.70;;
22634;SDS011;11484;50.858;4.384;2023-02-28T10:48:46;2.80;;;2.00;;
22634;SDS011;11484;50.858;4.384;2023-02-28T10:56:00;3.17;;;2.08;;
22634;SDS011;11484;50.858;4.384;2023-02-28T11:00:55;2.90;;;2.30;;
22634;SDS011;11484;50.858;4.384;2023-02-28T11:03:29;2.92;;;2.25;;
22634;SDS011;11484;50.858;4.384;2023-02-28T11:06:04;5.78;;;2.70;;
22634;SDS011;11484;50.858;4.384;2023-02-28T11:08:33;3.80;;;2.60;;
22634;SDS011;11484;50.858;4.384;2023-02-28T11:11:01;4.40;;;2.38;;
22634;SDS011;11484;50.858;4.384;2023-02-28T11:13:34;3.80;;;2.58;;
22634;SDS011;11484;50.858;4.384;2023-02-28T11:16:04;4.85;;;2.60;;
22634;SDS011;11484;50.858;4.384;2023-02-28T11:21:15;4.82;;;2.80;;
22634;SDS011;11484;50.858;4.384;2023-02-28T11:23:56;2.95;;;2.55;;
22634;SDS011;11484;50.858;4.384;2023-02-28T11:26:42;3.78;;;2.60;;
22634;SDS011;11484;50.858;4.384;2023-02-28T11:29:19;4.10;;;2.57;;
22634;SDS011;11484;50.858;4.384;2023-02-28T11:34:32;4.20;;;2.83;;
22634;SDS011;11484;50.858;4.384;2023-02-28T11:36:59;3.72;;;2.53;;
22634;SDS011;11484;50.858;4.384;2023-02-28T11:39:26;4.25;;;2.50;;
22634;SDS011;11484;50.858;4.384;2023-02-28T11:53:10;3.22;;;2.67;;
22634;SDS011;11484;50.858;4.384;2023-02-28T11:56:05;4.55;;;2.67;;
22634;SDS011;11484;50.858;4.384;2023-02-28T11:58:42;5.03;;;3.20;;
22634;SDS011;11484;50.858;4.384;2023-02-28T12:01:25;5.22;;;2.90;;
22634;SDS011;11484;50.858;4.384;2023-02-28T12:23:11;3.67;;;2.83;;
22634;SDS011;11484;50.858;4.384;2023-02-28T12:26:06;4.78;;;2.75;;
22634;SDS011;11484;50.858;4.384;2023-02-28T12:28:44;4.10;;;3.28;;
22634;SDS011;11484;50.858;4.384;2023-02-28T12:31:22;4.53;;;2.75;;
22634;SDS011;11484;50.858;4.384;2023-02-28T12:33:53;2.85;;;2.38;;
22634;SDS011;11484;50.858;4.384;2023-02-28T12:36:38;4.03;;;2.70;;
22634;SDS011;11484;50.858;4.384;2023-02-28T12:39:14;3.42;;;2.40;;
22634;SDS011;11484;50.858;4.384;2023-02-28T12:41:59;5.18;;;2.70;;
22634;SDS011;11484;50.858;4.384;2023-02-28T12:44:49;4.30;;;2.85;;
22634;SDS011;11484;50.858;4.384;2023-02-28T12:47:19;5.18;;;2.70;;
22634;SDS011;11484;50.858;4.384;2023-02-28T12:49:49;4.63;;;2.70;;
22634;SDS011;11484;50.858;4.384;2023-02-28T12:52:28;3.88;;;2.70;;
22634;SDS011;11484;50.858;4.384;2023-02-28T13:00:25;3.92;;;2.67;;
22634;SDS011;11484;50.858;4.384;2023-02-28T13:03:12;4.50;;;3.00;;
22634;SDS011;11484;50.858;4.384;2023-02-28T13:11:51;4.75;;;2.90;;
22634;SDS011;11484;50.858;4.384;2023-02-28T13:16:54;3.75;;;2.92;;
22634;SDS011;11484;50.858;4.384;2023-02-28T13:19:27;4.18;;;2.70;;
22634;SDS011;11484;50.858;4.384;2023-02-28T13:21:57;4.13;;;2.50;;
22634;SDS011;11484;50.858;4.384;2023-02-28T13:24:43;3.08;;;2.35;;
22634;SDS011;11484;50.858;4.384;2023-02-28T13:27:21;3.45;;;2.63;;
22634;SDS011;11484;50.858;4.384;2023-02-28T13:29:57;4.82;;;3.08;;
22634;SDS011;11484;50.858;4.384;2023-02-28T13:32:33;5.15;;;2.63;;
22634;SDS011;11484;50.858;4.384;2023-02-28T13:37:34;3.05;;;2.65;;
22634;SDS011;11484;50.858;4.384;2023-02-28T13:42:36;3.30;;;2.72;;
22634;SDS011;11484;50.858;4.384;2023-02-28T14:03:43;3.33;;;3.00;;
22634;SDS011;11484;50.858;4.384;2023-02-28T14:06:34;4.47;;;2.78;;
22634;SDS011;11484;50.858;4.384;2023-02-28T14:11:42;4.28;;;3.00;;
22634;SDS011;11484;50.858;4.384;2023-02-28T14:14:09;5.55;;;3.00;;
22634;SDS011;11484;50.858;4.384;2023-02-28T14:17:04;4.93;;;2.90;;
22634;SDS011;11484;50.858;4.384;2023-02-28T14:19:38;4.68;;;3.13;;
22634;SDS011;11484;50.858;4.384;2023-02-28T14:33:55;5.78;;;2.75;;
22634;SDS011;11484;50.858;4.384;2023-02-28T14:36:42;3.97;;;2.75;;
22634;SDS011;11484;50.858;4.384;2023-02-28T14:41:40;4.13;;;3.05;;
22634;SDS011;11484;50.858;4.384;2023-02-28T14:46:52;6.35;;;3.13;;
22634;SDS011;11484;50.858;4.384;2023-02-28T14:49:27;4.72;;;3.30;;
22634;SDS011;11484;50.858;4.384;2023-02-28T14:54:40;3.55;;;2.90;;
22634;SDS011;11484;50.858;4.384;2023-02-28T14:57:20;5.07;;;3.35;;
22634;SDS011;11484;50.858;4.384;2023-02-28T15:00:01;5.57;;;3.50;;
22634;SDS011;11484;50.858;4.384;2023-02-28T15:02:35;4.63;;;3.22;;
22634;SDS011;11484;50.858;4.384;2023-02-28T15:07:37;4.25;;;3.35;;
22634;SDS011;11484;50.858;4.384;2023-02-28T15:13:00;4.50;;;3.50;;
22634;SDS011;11484;50.858;4.384;2023-02-28T15:18:07;4.65;;;3.50;;
22634;SDS011;11484;50.858;4.384;2023-02-28T15:21:05;4.10;;;3.33;;
22634;SDS011;11484;50.858;4.384;2023-02-28T15:23:34;3.50;;;2.90;;
22634;SDS011;11484;50.858;4.384;2023-02-28T15:26:01;4.30;;;3.45;;
22634;SDS011;11484;50.858;4.384;2023-02-28T15:28:28;6.75;;;3.35;;
22634;SDS011;11484;50.858;4.384;2023-02-28T15:30:56;5.28;;;3.58;;
22634;SDS011;11484;50.858;4.384;2023-02-28T15:33:27;4.50;;;3.70;;
22634;SDS011;11484;50.858;4.384;2023-02-28T15:36:10;5.60;;;3.63;;
22634;SDS011;11484;50.858;4.384;2023-02-28T15:38:42;5.80;;;3.67;;
22634;SDS011;11484;50.858;4.384;2023-02-28T15:41:30;6.53;;;3.40;;
22634;SDS011;11484;50.858;4.384;2023-02-28T15:46:58;5.07;;;3.30;;
22634;SDS011;11484;50.858;4.384;2023-02-28T15:49:29;4.45;;;3.35;;
22634;SDS011;11484;50.858;4.384;2023-02-28T15:52:16;4.68;;;3.33;;
22634;SDS011;11484;50.858;4.384;2023-02-28T15:54:46;5.18;;;3.42;;
22634;SDS011;11484;50.858;4.384;2023-02-28T15:57:20;6.63;;;4.03;;
22634;SDS011;11484;50.858;4.384;2023-02-28T15:59:49;4.60;;;3.55;;
22634;SDS011;11484;50.858;4.384;2023-02-28T16:05:12;5.72;;;3.45;;
22634;SDS011;11484;50.858;4.384;2023-02-28T16:07:59;3.90;;;3.50;;
22634;SDS011;11484;50.858;4.384;2023-02-28T16:10:27;5.18;;;3.67;;
22634;SDS011;11484;50.858;4.384;2023-02-28T16:12:55;5.88;;;3.70;;
22634;SDS011;11484;50.858;4.384;2023-02-28T16:15:23;4.60;;;3.17;;
22634;SDS011;11484;50.858;4.384;2023-02-28T16:17:54;4.05;;;3.00;;
22634;SDS011;11484;50.858;4.384;2023-02-28T16:20:22;4.40;;;3.22;;
22634;SDS011;11484;50.858;4.384;2023-02-28T16:22:53;5.78;;;3.67;;
22634;SDS011;11484;50.858;4.384;2023-02-28T16:25:20;5.97;;;3.28;;
22634;SDS011;11484;50.858;4.384;2023-02-28T16:27:51;3.83;;;3.42;;
22634;SDS011;11484;50.858;4.384;2023-02-28T16:30:23;4.72;;;3.22;;
22634;SDS011;11484;50.858;4.384;2023-02-28T16:32:50;4.75;;;3.78;;
22634;SDS011;11484;50.858;4.384;2023-02-28T16:35:18;4.60;;;3.38;;
22634;SDS011;11484;50.858;4.384;2023-02-28T16:37:45;4.55;;;3.47;;
22634;SDS011;11484;50.858;4.384;2023-02-28T16:40:29;4.65;;;3.70;;
22634;SDS011;11484;50.858;4.384;2023-02-28T16:42:59;6.95;;;3.67;;
22634;SDS011;11484;50.858;4.384;2023-02-28T16:45:28;7.15;;;3.25;;
22634;SDS011;11484;50.858;4.384;2023-02-28T16:47:54;4.10;;;3.17;;
22634;SDS011;11484;50.858;4.384;2023-02-28T16:50:25;5.18;;;3.80;;
22634;SDS011;11484;50.858;4.384;2023-02-28T16:52:52;4.25;;;3.33;;
22634;SDS011;11484;50.858;4.384;2023-02-28T16:55:19;3.80;;;3.17;;
22634;SDS011;11484;50.858;4.384;2023-02-28T16:57:50;4.75;;;3.20;;
22634;SDS011;11484;50.858;4.384;2023-02-28T17:00:21;6.25;;;3.38;;
22634;SDS011;11484;50.858;4.384;2023-02-28T17:02:47;5.07;;;3.10;;
22634;SDS011;11484;50.858;4.384;2023-02-28T17:05:13;3.88;;;3.38;;
22634;SDS011;11484;50.858;4.384;2023-02-28T17:07:40;4.93;;;3.25;;
22634;SDS011;11484;50.858;4.384;2023-02-28T17:10:14;10.10;;;3.63;;
22634;SDS011;11484;50.858;4.384;2023-02-28T17:12:39;5.10;;;2.70;;
22634;SDS011;11484;50.858;4.384;2023-02-28T17:15:05;4.93;;;2.80;;
22634;SDS011;11484;50.858;4.384;2023-02-28T17:17:32;5.55;;;3.30;;
22634;SDS011;11484;50.858;4.384;2023-02-28T17:19:59;6.25;;;3.30;;
22634;SDS011;11484;50.858;4.384;2023-02-28T17:22:25;3.67;;;2.78;;
22634;SDS011;11484;50.858;4.384;2023-02-28T17:24:51;5.13;;;3.42;;
22634;SDS011;11484;50.858;4.384;2023-02-28T17:27:20;5.38;;;3.08;;
22634;SDS011;11484;50.858;4.384;2023-02-28T17:29:46;5.80;;;3.25;;
22634;SDS011;11484;50.858;4.384;2023-02-28T17:32:12;3.97;;;2.95;;
22634;SDS011;11484;50.858;4.384;2023-02-28T17:34:38;5.55;;;3.05;;
22634;SDS011;11484;50.858;4.384;2023-02-28T17:37:04;5.70;;;3.50;;
22634;SDS011;11484;50.858;4.384;2023-02-28T17:39:29;4.50;;;3.03;;
22634;SDS011;11484;50.858;4.384;2023-02-28T17:41:55;4.35;;;3.13;;
22634;SDS011;11484;50.858;4.384;2023-02-28T17:44:22;5.75;;;3.33;;
22634;SDS011;11484;50.858;4.384;2023-02-28T17:46:49;7.70;;;3.47;;